Time;durP1;ratioP1;P1;durP2;ratioP2;P2;SDS_P1;SDS_P2;PMS_P1;PMS_P2;Temp;Humidity;BMP_temperature;BMP_pressure;BME280_temperature;BME280_humidity;BME280_pressure;Samples;Min_cycle;Max_cycle;Signal;HPM_P1;HPM_P2
2021/12/28 00:00:09;;;;;;;34.80;19.73;;;2.40;1.00;;;;;;5046770;28;20194;-58
2021/12/28 00:02:35;;;;;;;29.80;17.00;;;;;;;;;;5053293;28;20188;-60
2021/12/28 00:05:01;;;;;;;28.67;18.67;;;2.40;1.00;;;;;;5048388;28;20454;-58
2021/12/28 00:07:26;;;;;;;33.30;19.80;;;2.40;1.00;;;;;;5052857;28;20928;-59
2021/12/28 00:09:52;;;;;;;31.80;17.97;;;2.40;1.00;;;;;;5054838;28;20213;-58
2021/12/28 00:12:18;;;;;;;29.50;18.07;;;;;;;;;;5054785;28;20278;-58
2021/12/28 00:15:01;;;;;;;39.50;19.53;;;2.40;1.00;;;;;;5062042;28;20634;-57
2021/12/28 00:20:11;;;;;;;29.33;19.10;;;2.40;1.00;;;;;;5050634;28;21076;-57
2021/12/28 00:22:37;;;;;;;27.97;16.90;;;;;;;;;;5062774;28;20543;-57
2021/12/28 00:25:04;;;;;;;32.07;19.73;;;2.40;1.00;;;;;;5053233;28;20459;-58
2021/12/28 00:27:30;;;;;;;33.17;20.80;;;2.40;1.00;;;;;;5059296;28;20484;-58
2021/12/28 00:29:56;;;;;;;29.30;18.60;;;;;;;;;;5050914;28;20616;-57
2021/12/28 00:32:21;;;;;;;31.13;19.53;;;2.40;1.00;;;;;;5057170;28;20273;-58
2021/12/28 00:34:47;;;;;;;33.10;19.07;;;2.40;1.00;;;;;;5053624;28;20915;-57
2021/12/28 00:37:12;;;;;;;29.50;18.87;;;2.50;1.00;;;;;;5051707;28;20188;-59
2021/12/28 00:39:38;;;;;;;32.30;18.80;;;2.50;1.00;;;;;;5049280;28;20206;-59
2021/12/28 00:42:04;;;;;;;30.10;20.40;;;2.50;1.00;;;;;;5057380;28;20183;-56
2021/12/28 00:44:30;;;;;;;27.83;17.90;;;2.60;1.00;;;;;;5055290;28;20240;-57
2021/12/28 00:46:56;;;;;;;34.47;19.30;;;;;;;;;;5061846;28;20939;-58
2021/12/28 00:49:21;;;;;;;28.60;17.17;;;2.60;1.00;;;;;;5054077;28;20216;-59
2021/12/28 00:51:47;;;;;;;30.50;18.10;;;2.60;1.00;;;;;;5055225;28;20589;-59
2021/12/28 00:54:13;;;;;;;31.07;19.83;;;2.60;1.00;;;;;;5055688;28;20177;-56
2021/12/28 00:56:38;;;;;;;31.60;18.87;;;2.70;1.00;;;;;;5057238;28;20451;-57
2021/12/28 00:59:04;;;;;;;30.73;19.97;;;2.70;1.00;;;;;;5053883;28;20190;-57
2021/12/28 01:01:30;;;;;;;29.87;19.77;;;2.70;1.00;;;;;;5054471;28;20193;-58
2021/12/28 01:03:55;;;;;;;34.23;19.43;;;2.70;1.00;;;;;;5055721;28;20185;-58
2021/12/28 01:06:21;;;;;;;31.00;19.20;;;2.70;1.00;;;;;;5050736;28;20735;-59
2021/12/28 01:08:47;;;;;;;29.07;18.17;;;2.80;1.00;;;;;;5050769;28;20217;-57
2021/12/28 01:11:12;;;;;;;34.67;19.70;;;2.80;1.00;;;;;;5053300;28;21006;-57
2021/12/28 01:13:38;;;;;;;31.23;19.40;;;2.80;1.00;;;;;;5050226;28;20219;-58
2021/12/28 01:16:04;;;;;;;33.40;19.80;;;2.90;1.00;;;;;;5052358;28;20188;-57
2021/12/28 01:18:30;;;;;;;33.70;19.13;;;2.90;1.00;;;;;;5054302;28;20275;-58
2021/12/28 01:20:55;;;;;;;31.10;19.40;;;3.00;1.00;;;;;;5058917;28;20524;-57
2021/12/28 01:23:21;;;;;;;30.30;17.47;;;3.00;1.00;;;;;;5048543;28;20634;-57
2021/12/28 01:25:47;;;;;;;29.30;18.97;;;;;;;;;;5057600;28;20316;-55
2021/12/28 01:28:13;;;;;;;28.77;17.17;;;3.10;1.00;;;;;;5051187;28;20624;-58
2021/12/28 01:30:40;;;;;;;27.97;19.20;;;3.20;1.00;;;;;;5055116;28;20448;-59
2021/12/28 01:33:06;;;;;;;30.93;19.23;;;3.20;1.00;;;;;;5046779;28;20536;-56
2021/12/28 01:35:33;;;;;;;34.00;19.73;;;3.20;1.00;;;;;;5059502;28;20529;-59
2021/12/28 01:38:00;;;;;;;31.60;18.33;;;3.30;1.00;;;;;;5058840;28;20491;-57
2021/12/28 01:40:29;;;;;;;32.80;19.60;;;3.30;1.00;;;;;;5049720;28;20948;-57
2021/12/28 01:42:56;;;;;;;32.63;20.77;;;3.40;1.00;;;;;;5049177;28;20456;-58
2021/12/28 01:45:35;;;;;;;27.00;16.40;;;3.30;1.00;;;;;;5057485;28;20460;-58
2021/12/28 01:48:00;;;;;;;28.67;18.37;;;3.30;1.00;;;;;;5051983;28;20447;-58
2021/12/28 01:50:26;;;;;;;32.53;20.43;;;3.30;1.00;;;;;;5058179;28;20496;-57
2021/12/28 01:52:52;;;;;;;33.83;19.77;;;3.30;1.00;;;;;;5044674;28;20184;-57
2021/12/28 01:55:18;;;;;;;32.17;18.70;;;3.40;1.00;;;;;;5050609;28;20240;-57
2021/12/28 01:57:44;;;;;;;29.43;19.20;;;3.40;1.00;;;;;;5059035;28;20198;-58
2021/12/28 02:00:10;;;;;;;27.90;18.60;;;3.40;1.00;;;;;;5051922;28;20205;-57
2021/12/28 02:02:36;;;;;;;32.13;19.67;;;3.40;1.00;;;;;;5047443;28;20481;-57
2021/12/28 02:05:02;;;;;;;29.60;19.93;;;3.40;1.00;;;;;;5057896;28;20457;-57
2021/12/28 02:07:28;;;;;;;33.20;18.50;;;3.50;1.00;;;;;;5059265;28;20196;-57
2021/12/28 02:09:53;;;;;;;32.27;20.83;;;3.50;1.00;;;;;;5056454;28;20484;-58
2021/12/28 02:12:19;;;;;;;32.93;20.20;;;3.50;1.00;;;;;;5049136;28;20183;-58
2021/12/28 02:14:45;;;;;;;31.43;19.10;;;3.50;1.00;;;;;;5050741;28;20204;-57
2021/12/28 02:17:11;;;;;;;32.50;19.40;;;3.50;1.00;;;;;;5051766;28;20192;-58
2021/12/28 02:19:36;;;;;;;30.67;19.67;;;3.50;1.00;;;;;;5049396;28;21326;-58
2021/12/28 02:22:02;;;;;;;33.03;18.90;;;3.40;1.00;;;;;;5048218;28;20604;-57
2021/12/28 02:24:28;;;;;;;34.57;19.40;;;3.40;1.00;;;;;;5047214;28;20210;-58
2021/12/28 02:26:54;;;;;;;32.70;19.63;;;;;;;;;;5059802;28;20482;-59
2021/12/28 02:29:19;;;;;;;27.97;18.90;;;3.40;1.00;;;;;;5047966;28;20250;-59
2021/12/28 02:31:46;;;;;;;31.77;19.50;;;3.40;1.00;;;;;;5052126;28;20438;-57
2021/12/28 02:34:12;;;;;;;30.40;18.97;;;3.40;1.00;;;;;;5055412;28;20702;-58
2021/12/28 02:36:38;;;;;;;30.77;19.93;;;3.50;1.00;;;;;;5049209;28;20996;-57
2021/12/28 02:39:03;;;;;;;30.83;20.63;;;3.50;1.00;;;;;;5046868;28;20457;-58
2021/12/28 02:41:29;;;;;;;36.00;21.30;;;3.50;1.00;;;;;;5055076;28;20210;-57
2021/12/28 02:44:02;;;;;;;30.00;19.77;;;3.60;1.00;;;;;;5046704;28;20205;-58
2021/12/28 02:46:28;;;;;;;33.50;21.40;;;3.60;1.00;;;;;;5055512;28;20637;-57
2021/12/28 02:48:54;;;;;;;38.57;21.20;;;;;;;;;;5048822;28;20485;-57
2021/12/28 02:51:20;;;;;;;34.03;20.63;;;3.50;1.00;;;;;;5054971;28;20587;-57
2021/12/28 02:53:46;;;;;;;34.53;20.50;;;3.50;1.00;;;;;;5049516;28;20508;-59
2021/12/28 02:56:14;;;;;;;35.37;21.10;;;3.10;1.00;;;;;;5055344;28;20185;-58
2021/12/28 02:58:42;;;;;;;43.40;22.70;;;3.50;1.00;;;;;;5048115;28;20788;-58
2021/12/28 03:01:15;;;;;;;32.77;21.00;;;3.50;1.00;;;;;;5048322;28;20460;-57
2021/12/28 03:03:43;;;;;;;40.70;21.50;;;3.40;1.00;;;;;;5048943;28;20455;-57
2021/12/28 03:06:12;;;;;;;31.77;21.93;;;3.50;1.00;;;;;;5059040;28;20492;-58
2021/12/28 03:08:43;;;;;;;38.70;23.53;;;3.50;1.00;;;;;;5049580;28;20469;-60
2021/12/28 03:11:10;;;;;;;37.97;22.40;;;3.50;1.00;;;;;;5052454;28;20534;-58
2021/12/28 03:13:43;;;;;;;38.07;20.97;;;3.60;1.00;;;;;;5051816;28;20453;-57
2021/12/28 03:16:09;;;;;;;41.13;22.70;;;3.60;1.00;;;;;;5050047;28;20451;-58
2021/12/28 03:18:35;;;;;;;44.53;23.37;;;3.60;1.00;;;;;;5051073;28;20974;-57
2021/12/28 03:21:04;;;;;;;37.90;23.20;;;3.60;1.00;;;;;;5058991;28;20453;-57
2021/12/28 03:23:30;;;;;;;40.90;23.13;;;3.60;1.00;;;;;;5051060;28;20487;-58
2021/12/28 03:25:56;;;;;;;37.83;21.40;;;3.60;1.00;;;;;;5051819;28;20481;-58
2021/12/28 03:28:24;;;;;;;34.73;21.47;;;3.50;1.00;;;;;;5050072;28;20454;-57
2021/12/28 03:30:52;;;;;;;40.83;24.73;;;3.40;1.00;;;;;;5050359;28;20448;-58
2021/12/28 03:33:19;;;;;;;37.60;23.40;;;3.40;1.00;;;;;;5052782;28;20440;-58
2021/12/28 03:35:46;;;;;;;41.60;23.57;;;3.50;1.00;;;;;;5049795;28;20901;-57
2021/12/28 03:38:11;;;;;;;37.60;25.17;;;3.50;1.00;;;;;;5058877;28;20996;-58
2021/12/28 03:40:37;;;;;;;48.20;26.30;;;3.50;1.00;;;;;;5060434;28;20433;-58
2021/12/28 03:43:03;;;;;;;40.43;23.67;;;3.50;1.00;;;;;;5057098;28;20182;-58
2021/12/28 03:45:29;;;;;;;40.87;24.53;;;;;;;;;;5052473;28;20443;-57
2021/12/28 03:47:55;;;;;;;41.93;24.60;;;3.50;1.00;;;;;;5051566;28;20186;-57
2021/12/28 03:50:22;;;;;;;44.87;24.97;;;3.50;1.00;;;;;;5051048;28;20544;-59
2021/12/28 03:52:48;;;;;;;40.37;24.53;;;3.40;1.00;;;;;;5049930;28;20686;-57
2021/12/28 03:55:13;;;;;;;43.00;23.50;;;3.40;1.00;;;;;;5049061;28;20428;-59
2021/12/28 03:57:40;;;;;;;42.00;25.17;;;3.40;1.00;;;;;;5065108;28;20191;-58
2021/12/28 04:00:09;;;;;;;43.43;25.40;;;3.40;1.00;;;;;;5050445;28;20208;-57
2021/12/28 04:02:35;;;;;;;38.57;23.43;;;3.40;1.00;;;;;;5046261;28;20546;-57
2021/12/28 04:05:00;;;;;;;51.90;27.13;;;3.40;1.00;;;;;;5050585;28;20554;-58
2021/12/28 04:07:26;;;;;;;46.17;26.70;;;3.40;1.00;;;;;;5051366;28;21708;-58
2021/12/28 04:12:18;;;;;;;43.10;25.17;;;3.40;1.00;;;;;;5052650;28;20184;-58
2021/12/28 04:14:44;;;;;;;43.30;25.70;;;3.30;1.00;;;;;;5046590;28;20454;-58
2021/12/28 04:17:09;;;;;;;45.17;24.97;;;3.40;1.00;;;;;;5062856;28;20447;-57
2021/12/28 04:19:35;;;;;;;40.13;23.00;;;3.30;1.00;;;;;;5050466;28;20195;-57
2021/12/28 04:22:01;;;;;;;44.57;25.63;;;3.30;1.00;;;;;;5048784;28;20189;-57
2021/12/28 04:24:27;;;;;;;43.27;25.97;;;;;;;;;;5053938;28;20785;-60
2021/12/28 04:26:52;;;;;;;41.10;22.30;;;3.30;1.00;;;;;;5051645;28;20586;-59
2021/12/28 04:29:18;;;;;;;49.57;24.43;;;;;;;;;;5048047;28;20482;-57
2021/12/28 04:31:44;;;;;;;41.73;25.70;;;;;;;;;;5054743;28;20190;-57
2021/12/28 04:34:10;;;;;;;51.50;27.30;;;3.40;1.00;;;;;;5054093;28;20496;-59
2021/12/28 04:36:36;;;;;;;48.10;25.60;;;;;;;;;;5050749;28;20462;-58
2021/12/28 04:39:03;;;;;;;41.37;23.47;;;3.40;1.00;;;;;;5054734;28;20651;-58
2021/12/28 04:41:29;;;;;;;36.67;21.87;;;3.40;1.00;;;;;;5053503;28;20504;-58
2021/12/28 04:43:55;;;;;;;45.80;23.70;;;3.40;1.00;;;;;;5049713;28;20433;-58
2021/12/28 04:46:20;;;;;;;35.57;22.20;;;3.30;1.00;;;;;;5050839;28;20273;-58
2021/12/28 04:48:46;;;;;;;45.13;25.27;;;3.30;1.00;;;;;;5053323;28;20207;-57
2021/12/28 04:51:12;;;;;;;42.27;23.87;;;3.20;1.00;;;;;;5049506;28;20509;-57
2021/12/28 04:53:37;;;;;;;43.93;25.50;;;3.30;1.00;;;;;;5051545;28;20182;-58
2021/12/28 04:56:03;;;;;;;39.63;22.37;;;3.30;1.00;;;;;;5054616;28;20451;-56
2021/12/28 04:58:29;;;;;;;44.13;25.53;;;3.30;1.00;;;;;;5053654;28;20185;-57
2021/12/28 05:00:55;;;;;;;41.50;22.63;;;3.30;1.00;;;;;;5051198;28;20802;-57
2021/12/28 05:03:21;;;;;;;44.20;25.27;;;3.30;1.00;;;;;;5051009;28;20196;-57
2021/12/28 05:05:50;;;;;;;43.60;23.27;;;3.30;1.00;;;;;;5061075;28;20184;-57
2021/12/28 05:08:17;;;;;;;40.80;23.70;;;3.20;1.00;;;;;;5050126;28;20535;-59
2021/12/28 05:10:43;;;;;;;34.47;19.63;;;3.20;1.00;;;;;;5054801;28;20446;-57
2021/12/28 05:13:09;;;;;;;43.33;24.70;;;3.20;1.00;;;;;;5051754;28;20447;-57
2021/12/28 05:15:35;;;;;;;41.83;23.70;;;3.20;1.00;;;;;;5049690;28;20441;-59
2021/12/28 05:18:01;;;;;;;42.53;24.80;;;;;;;;;;5049041;28;20192;-60
2021/12/28 05:20:27;;;;;;;39.27;20.73;;;3.40;1.00;;;;;;5055218;28;20444;-59
2021/12/28 05:22:52;;;;;;;34.47;21.00;;;3.40;1.00;;;;;;5049343;28;21557;-58
2021/12/28 05:25:18;;;;;;;41.40;23.60;;;3.40;1.00;;;;;;5050943;28;20455;-58
2021/12/28 05:27:43;;;;;;;41.53;22.50;;;3.60;1.00;;;;;;5048518;28;20236;-58
2021/12/28 05:30:10;;;;;;;33.70;21.07;;;3.50;1.00;;;;;;5052159;28;20221;-60
2021/12/28 05:32:36;;;;;;;39.53;23.93;;;3.40;1.00;;;;;;5049162;28;20188;-57
2021/12/28 05:35:03;;;;;;;34.80;19.57;;;3.30;1.00;;;;;;5038528;28;20801;-58
2021/12/28 05:37:29;;;;;;;40.80;22.60;;;3.40;1.00;;;;;;5049188;28;20198;-59
2021/12/28 05:39:54;;;;;;;40.80;22.37;;;3.40;1.00;;;;;;5051320;28;20952;-58
2021/12/28 05:42:20;;;;;;;34.67;20.77;;;3.30;1.00;;;;;;5056024;28;20544;-58
2021/12/28 05:44:46;;;;;;;43.67;22.47;;;3.20;1.00;;;;;;5050208;28;20187;-59
2021/12/28 05:47:11;;;;;;;36.43;22.00;;;3.20;1.00;;;;;;5052294;28;20452;-59
2021/12/28 05:49:37;;;;;;;35.40;19.50;;;3.20;1.00;;;;;;5058418;28;20231;-58
2021/12/28 05:52:03;;;;;;;37.67;20.03;;;3.20;1.00;;;;;;5058819;28;20207;-58
2021/12/28 05:54:29;;;;;;;42.27;21.67;;;3.20;1.00;;;;;;5056570;28;20185;-58
2021/12/28 05:56:55;;;;;;;35.73;20.93;;;3.20;1.00;;;;;;5049329;28;20842;-56
2021/12/28 05:59:20;;;;;;;38.03;20.60;;;3.10;1.00;;;;;;5048323;28;20181;-58
2021/12/28 06:01:46;;;;;;;37.70;19.90;;;3.10;1.00;;;;;;5061708;28;20242;-58
2021/12/28 06:04:12;;;;;;;34.70;18.47;;;3.10;1.00;;;;;;5052980;28;20187;-58
2021/12/28 06:06:37;;;;;;;33.40;19.60;;;3.00;1.00;;;;;;5051837;28;20843;-59
2021/12/28 06:09:03;;;;;;;34.67;19.83;;;3.30;1.00;;;;;;5051470;28;20757;-57
2021/12/28 06:11:29;;;;;;;37.80;20.50;;;;;;;;;;5050843;28;20213;-58
2021/12/28 06:13:55;;;;;;;38.17;18.40;;;3.10;1.00;;;;;;5058208;28;20445;-59
2021/12/28 06:16:20;;;;;;;34.87;19.90;;;3.10;1.00;;;;;;5050163;28;20432;-58
2021/12/28 06:18:46;;;;;;;33.80;19.50;;;3.10;1.00;;;;;;5048507;28;20262;-59
2021/12/28 06:21:11;;;;;;;34.60;19.63;;;3.10;1.00;;;;;;5047457;28;20203;-58
2021/12/28 06:23:37;;;;;;;38.33;20.57;;;3.10;1.00;;;;;;5052306;28;20193;-58
2021/12/28 06:26:03;;;;;;;34.07;19.20;;;3.10;1.00;;;;;;5052243;28;20232;-59
2021/12/28 06:28:29;;;;;;;31.83;17.53;;;3.20;1.00;;;;;;5052366;28;20278;-58
2021/12/28 06:30:55;;;;;;;39.50;19.80;;;3.10;1.00;;;;;;5054228;28;20198;-59
2021/12/28 06:33:21;;;;;;;32.93;17.80;;;3.10;1.00;;;;;;5051534;28;20186;-57
2021/12/28 06:35:49;;;;;;;36.77;18.60;;;3.10;1.00;;;;;;5049107;28;20958;-58
2021/12/28 06:38:15;;;;;;;32.00;17.90;;;3.10;1.00;;;;;;5056461;28;20501;-57
2021/12/28 06:40:41;;;;;;;35.87;18.73;;;3.20;1.00;;;;;;5052927;28;20482;-58
2021/12/28 06:43:07;;;;;;;30.33;17.60;;;3.20;1.00;;;;;;5053969;28;20948;-59
2021/12/28 06:45:33;;;;;;;33.40;17.60;;;3.20;1.00;;;;;;5060496;28;20187;-59
2021/12/28 06:47:59;;;;;;;33.20;17.77;;;3.30;1.00;;;;;;5054236;28;20442;-57
2021/12/28 06:50:24;;;;;;;35.80;18.80;;;3.20;1.00;;;;;;5058243;28;20243;-57
2021/12/28 06:52:50;;;;;;;32.17;16.13;;;3.30;1.00;;;;;;5058553;28;20187;-58
2021/12/28 06:55:16;;;;;;;33.30;18.43;;;;;;;;;;5052582;28;20304;-58
2021/12/28 06:57:41;;;;;;;33.03;17.97;;;3.20;1.00;;;;;;5066730;28;20705;-57
2021/12/28 07:00:10;;;;;;;36.57;19.43;;;3.20;1.00;;;;;;5065131;28;20927;-58
2021/12/28 07:02:36;;;;;;;30.27;17.17;;;3.20;1.00;;;;;;5051807;28;20278;-59
2021/12/28 07:05:03;;;;;;;30.90;19.10;;;3.30;1.00;;;;;;5058172;28;20577;-59
2021/12/28 07:07:29;;;;;;;35.10;19.40;;;3.30;1.00;;;;;;5059150;28;20179;-61
2021/12/28 07:09:54;;;;;;;33.53;17.83;;;3.40;1.00;;;;;;5056739;28;20471;-61
2021/12/28 07:12:20;;;;;;;29.70;18.07;;;3.40;1.00;;;;;;5052181;28;20182;-58
2021/12/28 07:14:47;;;;;;;28.30;16.77;;;;;;;;;;5059137;28;20213;-58
2021/12/28 07:17:12;;;;;;;31.10;18.00;;;3.60;1.00;;;;;;5057390;28;20181;-59
2021/12/28 07:19:38;;;;;;;33.27;19.33;;;3.60;1.00;;;;;;5052020;28;20480;-59
2021/12/28 07:22:03;;;;;;;29.67;17.30;;;3.60;1.00;;;;;;5056878;28;20184;-59
2021/12/28 07:24:30;;;;;;;30.10;16.60;;;3.60;1.00;;;;;;5059628;28;20259;-58
2021/12/28 07:26:56;;;;;;;32.80;19.27;;;3.60;1.00;;;;;;5054440;28;20471;-59
2021/12/28 07:29:23;;;;;;;32.23;16.70;;;3.50;1.00;;;;;;5052183;28;20815;-58
2021/12/28 07:31:49;;;;;;;31.60;18.00;;;3.50;1.00;;;;;;5056843;28;20448;-58
2021/12/28 07:34:16;;;;;;;31.40;17.10;;;3.50;1.00;;;;;;5056670;28;20524;-60
2021/12/28 07:36:41;;;;;;;32.17;17.77;;;3.50;1.00;;;;;;5052285;28;20445;-59
2021/12/28 07:39:07;;;;;;;28.90;17.17;;;3.50;1.00;;;;;;5054170;28;20979;-58
2021/12/28 07:41:33;;;;;;;32.27;18.73;;;3.60;1.00;;;;;;5052013;28;20213;-57
2021/12/28 07:43:59;;;;;;;28.07;15.70;;;3.60;1.00;;;;;;5058704;28;20496;-60
2021/12/28 07:46:24;;;;;;;28.70;18.50;;;3.50;1.00;;;;;;5052952;28;20443;-57
2021/12/28 07:48:50;;;;;;;30.33;17.50;;;3.50;1.00;;;;;;5061492;28;20513;-58
2021/12/28 07:51:16;;;;;;;27.57;18.03;;;3.50;1.00;;;;;;5050541;28;20202;-58
2021/12/28 07:53:41;;;;;;;27.50;18.40;;;3.50;1.00;;;;;;5051743;28;20186;-58
2021/12/28 07:56:07;;;;;;;29.93;17.80;;;;;;;;;;5056165;28;20543;-58
2021/12/28 07:58:33;;;;;;;25.47;16.10;;;3.50;1.00;;;;;;5060651;28;20595;-60
2021/12/28 08:00:59;;;;;;;31.13;18.20;;;3.60;1.00;;;;;;5057576;28;20475;-57
2021/12/28 08:03:25;;;;;;;27.97;15.93;;;3.50;1.00;;;;;;5059336;28;20208;-58
2021/12/28 08:05:52;;;;;;;30.10;17.83;;;3.50;1.00;;;;;;5051387;28;20190;-58
2021/12/28 08:08:18;;;;;;;31.43;18.47;;;3.50;1.00;;;;;;5058530;28;20510;-58
2021/12/28 08:10:44;;;;;;;32.80;18.17;;;3.50;1.00;;;;;;5051219;28;20489;-57
2021/12/28 08:13:10;;;;;;;27.77;17.73;;;3.50;1.00;;;;;;5057460;28;20477;-58
2021/12/28 08:15:35;;;;;;;28.63;17.20;;;3.70;1.00;;;;;;5060213;28;20182;-58
2021/12/28 08:18:03;;;;;;;30.00;16.53;;;3.70;1.00;;;;;;5056037;28;20242;-58
2021/12/28 08:20:29;;;;;;;30.70;17.73;;;3.80;1.00;;;;;;5068239;28;20199;-55
2021/12/28 08:22:56;;;;;;;30.03;16.50;;;3.80;1.00;;;;;;5061260;28;20451;-59
2021/12/28 08:25:23;;;;;;;28.97;16.40;;;3.70;1.00;;;;;;5057033;28;20513;-57
2021/12/28 08:27:49;;;;;;;29.03;16.57;;;3.70;1.00;;;;;;5058331;28;20943;-59
2021/12/28 08:30:16;;;;;;;26.73;17.83;;;3.70;1.00;;;;;;5050718;28;20490;-59
2021/12/28 08:32:42;;;;;;;31.23;16.80;;;3.70;1.00;;;;;;5050743;28;20498;-59
2021/12/28 08:35:08;;;;;;;28.60;16.73;;;3.70;1.00;;;;;;5050060;28;20441;-58
2021/12/28 08:37:34;;;;;;;24.13;14.30;;;3.70;1.00;;;;;;5050440;28;20187;-57
2021/12/28 08:40:00;;;;;;;24.90;15.30;;;;;;;;;;5054027;28;20813;-58
2021/12/28 08:42:26;;;;;;;27.37;16.00;;;3.80;1.00;;;;;;5051620;28;20820;-59
2021/12/28 08:44:52;;;;;;;26.90;16.67;;;3.80;1.00;;;;;;5054655;28;20418;-59
2021/12/28 08:47:18;;;;;;;23.73;15.10;;;3.70;1.00;;;;;;5052932;28;20278;-58
2021/12/28 08:49:43;;;;;;;27.70;15.23;;;3.80;1.00;;;;;;5058407;28;20468;-58
2021/12/28 08:52:09;;;;;;;21.93;14.43;;;3.80;1.00;;;;;;5052861;28;20449;-58
2021/12/28 08:54:35;;;;;;;25.90;14.97;;;3.80;1.00;;;;;;5063511;28;20187;-57
2021/12/28 08:57:01;;;;;;;22.67;16.10;;;;;;;;;;5062400;28;20669;-59
2021/12/28 08:59:27;;;;;;;26.43;16.70;;;3.80;1.00;;;;;;5053729;28;20191;-58
2021/12/28 09:01:55;;;;;;;26.33;17.37;;;3.90;1.00;;;;;;5049570;28;21176;-60
2021/12/28 09:04:21;;;;;;;25.70;16.40;;;3.90;1.00;;;;;;5066087;28;20614;-60
2021/12/28 09:06:47;;;;;;;29.67;18.20;;;3.90;1.00;;;;;;5059559;28;20454;-58
2021/12/28 09:09:14;;;;;;;25.27;16.20;;;3.90;1.00;;;;;;5054979;28;20525;-60
2021/12/28 09:11:41;;;;;;;27.30;16.73;;;3.80;1.00;;;;;;5051101;28;20449;-58
2021/12/28 09:14:07;;;;;;;28.50;16.93;;;;;;;;;;5050171;28;20432;-58
2021/12/28 09:16:33;;;;;;;26.83;16.03;;;3.90;1.00;;;;;;5053491;28;21007;-57
2021/12/28 09:18:59;;;;;;;29.33;16.77;;;4.00;1.00;;;;;;5052579;28;20449;-59
2021/12/28 09:21:24;;;;;;;28.63;16.17;;;3.90;1.00;;;;;;5062622;28;20190;-62
2021/12/28 09:23:50;;;;;;;27.87;16.37;;;4.10;1.00;;;;;;5059755;28;20195;-60
2021/12/28 09:26:16;;;;;;;21.47;14.03;;;;;;;;;;5058140;28;20300;-60
2021/12/28 09:28:41;;;;;;;31.40;17.00;;;4.10;1.00;;;;;;5054861;28;20187;-59
2021/12/28 09:31:08;;;;;;;18.70;12.40;;;4.40;1.00;;;;;;5070525;28;20965;-61
2021/12/28 09:33:34;;;;;;;25.83;15.23;;;4.30;1.00;;;;;;5056318;28;20521;-59
2021/12/28 09:36:05;;;;;;;26.53;15.40;;;4.40;1.00;;;;;;5050813;28;20440;-58
2021/12/28 09:38:30;;;;;;;23.27;14.20;;;4.40;1.00;;;;;;5064565;28;20177;-59
2021/12/28 09:40:56;;;;;;;24.27;14.70;;;4.50;1.00;;;;;;5070501;28;20437;-59
2021/12/28 09:43:22;;;;;;;26.60;17.73;;;4.60;1.00;;;;;;5061719;28;20218;-60
2021/12/28 09:45:48;;;;;;;27.33;15.03;;;4.60;1.00;;;;;;5070038;28;20191;-59
2021/12/28 09:48:13;;;;;;;21.37;13.57;;;4.60;1.00;;;;;;5049389;28;20198;-59
2021/12/28 09:50:41;;;;;;;26.10;15.90;;;4.70;1.00;;;;;;5063556;28;20474;-59
2021/12/28 09:53:09;;;;;;;21.20;13.63;;;4.80;1.00;;;;;;5068871;28;20222;-60
2021/12/28 09:55:35;;;;;;;23.13;15.60;;;4.90;1.00;;;;;;5059994;28;20449;-60
2021/12/28 09:58:02;;;;;;;23.77;14.90;;;4.80;1.00;;;;;;5052126;28;20489;-58
2021/12/28 10:00:28;;;;;;;22.40;14.30;;;;;;;;;;5054901;28;20462;-61
2021/12/28 10:02:55;;;;;;;25.20;15.67;;;5.00;1.00;;;;;;5057520;28;20463;-57
2021/12/28 10:05:24;;;;;;;28.10;14.77;;;5.00;1.00;;;;;;5058306;28;20511;-60
2021/12/28 10:07:56;;;;;;;25.87;14.43;;;5.00;1.00;;;;;;5049898;28;20443;-59
2021/12/28 10:10:22;;;;;;;19.50;13.37;;;;;;;;;;5051141;28;20470;-60
2021/12/28 10:12:54;;;;;;;23.47;15.50;;;5.00;1.00;;;;;;5052868;28;20460;-58
2021/12/28 10:15:25;;;;;;;21.67;12.43;;;5.00;1.00;;;;;;5053668;28;20445;-58
2021/12/28 10:17:54;;;;;;;23.67;15.80;;;5.00;1.00;;;;;;5056039;28;20462;-59
2021/12/28 10:20:24;;;;;;;23.90;15.40;;;5.00;1.00;;;;;;5063818;28;21035;-59
2021/12/28 10:22:53;;;;;;;20.40;12.53;;;5.00;1.00;;;;;;5071694;28;20792;-59
2021/12/28 10:26:17;;;;;;;21.50;13.17;;;5.00;1.00;;;;;;5053676;28;20517;-58
2021/12/28 10:28:42;;;;;;;22.00;13.70;;;5.10;1.00;;;;;;5042075;28;20964;-60
2021/12/28 10:31:16;;;;;;;21.67;14.00;;;5.20;1.00;;;;;;5053819;28;20495;-60
2021/12/28 10:33:42;;;;;;;19.60;13.40;;;5.30;1.00;;;;;;5065314;28;20258;-60
2021/12/28 10:36:13;;;;;;;21.80;14.10;;;5.30;1.00;;;;;;5053377;28;20873;-59
2021/12/28 10:38:44;;;;;;;23.10;15.00;;;5.30;1.00;;;;;;5052863;28;20230;-58
2021/12/28 10:41:17;;;;;;;25.57;14.27;;;5.30;1.00;;;;;;5062412;28;20445;-59
2021/12/28 10:43:45;;;;;;;25.63;14.93;;;5.30;1.00;;;;;;5050888;28;20514;-59
2021/12/28 10:46:20;;;;;;;20.90;15.33;;;5.30;1.00;;;;;;5035453;28;20818;-60
2021/12/28 10:48:50;;;;;;;19.60;14.30;;;5.30;1.00;;;;;;5050330;28;20445;-58
2021/12/28 10:51:24;;;;;;;21.00;13.50;;;5.20;1.00;;;;;;5058263;28;20519;-59
2021/12/28 10:54:02;;;;;;;22.63;15.90;;;5.30;1.00;;;;;;5072994;28;20895;-58
2021/12/28 10:56:40;;;;;;;25.33;14.27;;;5.40;1.00;;;;;;5072978;28;20473;-60
2021/12/28 10:59:07;;;;;;;28.30;15.80;;;5.30;1.00;;;;;;5063484;28;20448;-58
2021/12/28 11:01:38;;;;;;;20.90;14.03;;;5.20;1.00;;;;;;5052965;28;20436;-60
2021/12/28 11:04:08;;;;;;;20.03;15.40;;;5.10;1.00;;;;;;5051780;28;21290;-58
2021/12/28 11:06:40;;;;;;;23.37;14.10;;;5.20;1.00;;;;;;5053039;28;20445;-59
2021/12/28 11:09:16;;;;;;;32.70;16.33;;;5.10;1.00;;;;;;5052361;28;20466;-60
2021/12/28 11:11:42;;;;;;;23.93;15.53;;;5.00;1.00;;;;;;5052734;28;20533;-59
2021/12/28 11:14:13;;;;;;;22.60;13.30;;;5.10;1.00;;;;;;5052612;28;20517;-59
2021/12/28 11:16:39;;;;;;;25.13;14.00;;;5.30;1.00;;;;;;5052882;28;20440;-60
2021/12/28 11:19:07;;;;;;;24.83;14.23;;;5.40;1.00;;;;;;5052743;28;20438;-59
2021/12/28 11:21:36;;;;;;;24.77;13.67;;;5.50;1.00;;;;;;5052008;28;20499;-59
2021/12/28 11:24:10;;;;;;;20.47;13.80;;;5.80;1.00;;;;;;5052108;28;20951;-59
2021/12/28 11:26:40;;;;;;;18.90;13.50;;;5.90;1.00;;;;;;5052908;28;20470;-59
2021/12/28 11:29:20;;;;;;;21.97;13.77;;;6.10;1.00;;;;;;5070780;28;20592;-58
2021/12/28 11:31:52;;;;;;;19.97;13.60;;;6.40;1.00;;;;;;5072444;28;20443;-59
2021/12/28 11:34:29;;;;;;;20.70;13.93;;;6.40;1.00;;;;;;5072097;28;20440;-58
2021/12/28 11:36:58;;;;;;;24.03;14.73;;;6.40;1.00;;;;;;5063282;28;20435;-60
2021/12/28 11:39:27;;;;;;;21.67;16.17;;;6.40;1.00;;;;;;5072264;28;20476;-60
2021/12/28 11:41:54;;;;;;;21.30;13.97;;;6.30;1.00;;;;;;5072345;28;20495;-59
2021/12/28 11:44:22;;;;;;;20.50;13.97;;;3.30;1.00;;;;;;5072142;28;20437;-60
2021/12/28 11:46:49;;;;;;;19.07;14.30;;;6.20;1.00;;;;;;5071506;28;20574;-59
2021/12/28 11:49:15;;;;;;;21.90;14.60;;;6.10;1.00;;;;;;5055692;28;20459;-59
2021/12/28 11:51:43;;;;;;;23.50;15.67;;;6.00;1.00;;;;;;5051679;28;20439;-61
2021/12/28 11:54:11;;;;;;;19.43;14.07;;;5.90;1.00;;;;;;5051981;28;20434;-59
2021/12/28 11:56:40;;;;;;;20.50;14.53;;;5.90;1.00;;;;;;5051977;28;20434;-60
2021/12/28 11:59:13;;;;;;;22.27;14.60;;;5.90;1.00;;;;;;5052124;28;20493;-60
2021/12/28 12:01:43;;;;;;;19.47;14.37;;;5.80;1.00;;;;;;5063237;28;20437;-58
2021/12/28 12:04:30;;;;;;;22.60;14.07;;;5.80;1.00;;;;;;5071812;28;20969;-59
2021/12/28 12:07:14;;;;;;;18.27;14.17;;;5.80;1.00;;;;;;5071702;28;20437;-59
2021/12/28 12:09:52;;;;;;;22.13;14.90;;;5.90;1.00;;;;;;5053440;28;20444;-58
2021/12/28 12:12:28;;;;;;;19.30;13.37;;;6.10;1.00;;;;;;5071588;28;20441;-60
2021/12/28 12:14:58;;;;;;;23.77;15.30;;;6.20;1.00;;;;;;5057448;28;20518;-60
2021/12/28 12:17:39;;;;;;;25.27;15.90;;;6.30;1.00;;;;;;5051770;28;20553;-58
2021/12/28 12:20:06;;;;;;;21.53;13.90;;;6.40;1.00;;;;;;5051143;28;20447;-61
2021/12/28 12:22:32;;;;;;;19.60;13.43;;;6.40;1.00;;;;;;5049778;28;20968;-59
2021/12/28 12:24:58;;;;;;;24.67;15.13;;;6.30;1.00;;;;;;5051434;28;20442;-58
2021/12/28 12:27:38;;;;;;;22.23;15.50;;;6.20;1.00;;;;;;5051193;28;20241;-57
2021/12/28 12:30:24;;;;;;;24.80;16.63;;;6.00;1.00;;;;;;5060980;28;21372;-60
2021/12/28 12:32:56;;;;;;;24.47;16.70;;;5.90;1.00;;;;;;5054978;28;20798;-61
2021/12/28 12:35:30;;;;;;;26.97;16.50;;;5.90;1.00;;;;;;5050756;28;20439;-61
2021/12/28 12:37:56;;;;;;;29.23;15.77;;;5.70;1.00;;;;;;5050951;28;20444;-58
2021/12/28 12:40:42;;;;;;;20.30;13.53;;;5.60;1.00;;;;;;5064436;28;20470;-60
2021/12/28 12:43:10;;;;;;;22.23;14.60;;;5.50;1.00;;;;;;5070426;28;20452;-59
2021/12/28 12:45:51;;;;;;;22.20;14.30;;;5.50;1.00;;;;;;5052042;28;20461;-59
2021/12/28 12:48:40;;;;;;;22.20;14.77;;;5.60;1.00;;;;;;5050125;28;20920;-60
2021/12/28 12:51:21;;;;;;;20.30;15.10;;;5.60;1.00;;;;;;5050835;28;20480;-60
2021/12/28 12:54:02;;;;;;;20.80;13.80;;;5.60;1.00;;;;;;5050884;28;20839;-61
2021/12/28 12:56:32;;;;;;;21.87;16.00;;;5.50;1.00;;;;;;5059409;28;20462;-59
2021/12/28 12:59:20;;;;;;;21.87;14.07;;;5.40;1.00;;;;;;5050425;28;20405;-58